sensor_id;sensor_type;location;lat;lon;timestamp;P1;durP1;ratioP1;P2;durP2;ratioP2
18140;SDS011;9196;49.194;12.526;2023-04-24T00:01:44;2.60;;;2.40;;
18140;SDS011;9196;49.194;12.526;2023-04-24T00:04:12;3.33;;;2.07;;
18140;SDS011;9196;49.194;12.526;2023-04-24T00:06:41;2.37;;;2.17;;
18140;SDS011;9196;49.194;12.526;2023-04-24T00:09:08;2.63;;;2.43;;
18140;SDS011;9196;49.194;12.526;2023-04-24T00:11:36;2.33;;;2.13;;
18140;SDS011;9196;49.194;12.526;2023-04-24T00:14:02;1.97;;;1.83;;
18140;SDS011;9196;49.194;12.526;2023-04-24T00:16:29;2.70;;;2.53;;
18140;SDS011;9196;49.194;12.526;2023-04-24T00:18:56;3.53;;;2.20;;
18140;SDS011;9196;49.194;12.526;2023-04-24T00:21:24;2.67;;;2.47;;
18140;SDS011;9196;49.194;12.526;2023-04-24T00:23:51;2.30;;;2.10;;
18140;SDS011;9196;49.194;12.526;2023-04-24T00:26:19;2.40;;;2.27;;
18140;SDS011;9196;49.194;12.526;2023-04-24T00:28:46;2.80;;;2.60;;
18140;SDS011;9196;49.194;12.526;2023-04-24T00:31:12;4.00;;;2.40;;
18140;SDS011;9196;49.194;12.526;2023-04-24T00:33:39;2.30;;;2.17;;
18140;SDS011;9196;49.194;12.526;2023-04-24T00:36:06;3.00;;;2.80;;
18140;SDS011;9196;49.194;12.526;2023-04-24T00:38:34;3.43;;;3.20;;
18140;SDS011;9196;49.194;12.526;2023-04-24T00:41:01;3.30;;;3.00;;
18140;SDS011;9196;49.194;12.526;2023-04-24T00:43:28;3.17;;;2.93;;
18140;SDS011;9196;49.194;12.526;2023-04-24T00:45:55;3.17;;;2.80;;
18140;SDS011;9196;49.194;12.526;2023-04-24T00:48:21;2.50;;;2.40;;
18140;SDS011;9196;49.194;12.526;2023-04-24T00:50:49;3.00;;;2.80;;
18140;SDS011;9196;49.194;12.526;2023-04-24T00:53:16;2.50;;;2.30;;
18140;SDS011;9196;49.194;12.526;2023-04-24T00:55:44;3.50;;;3.20;;
18140;SDS011;9196;49.194;12.526;2023-04-24T00:58:12;4.00;;;2.90;;
18140;SDS011;9196;49.194;12.526;2023-04-24T01:00:39;2.07;;;2.00;;
18140;SDS011;9196;49.194;12.526;2023-04-24T01:03:06;2.70;;;2.60;;
18140;SDS011;9196;49.194;12.526;2023-04-24T01:05:34;2.70;;;2.60;;
18140;SDS011;9196;49.194;12.526;2023-04-24T01:08:01;4.03;;;2.80;;
18140;SDS011;9196;49.194;12.526;2023-04-24T01:10:28;2.60;;;2.43;;
18140;SDS011;9196;49.194;12.526;2023-04-24T01:12:58;2.77;;;2.60;;
18140;SDS011;9196;49.194;12.526;2023-04-24T01:15:25;3.20;;;2.90;;
18140;SDS011;9196;49.194;12.526;2023-04-24T01:17:52;3.17;;;2.97;;
18140;SDS011;9196;49.194;12.526;2023-04-24T01:20:19;3.67;;;3.37;;
18140;SDS011;9196;49.194;12.526;2023-04-24T01:22:48;6.03;;;2.63;;
18140;SDS011;9196;49.194;12.526;2023-04-24T01:25:14;3.77;;;2.60;;
18140;SDS011;9196;49.194;12.526;2023-04-24T01:27:41;3.70;;;3.43;;
18140;SDS011;9196;49.194;12.526;2023-04-24T01:30:08;3.13;;;3.03;;
18140;SDS011;9196;49.194;12.526;2023-04-24T01:32:36;3.00;;;2.70;;
18140;SDS011;9196;49.194;12.526;2023-04-24T01:35:04;2.73;;;2.63;;
18140;SDS011;9196;49.194;12.526;2023-04-24T01:37:32;3.60;;;2.70;;
18140;SDS011;9196;49.194;12.526;2023-04-24T01:40:00;2.77;;;2.57;;
18140;SDS011;9196;49.194;12.526;2023-04-24T01:42:28;5.90;;;3.20;;
18140;SDS011;9196;49.194;12.526;2023-04-24T01:44:55;3.20;;;3.00;;
18140;SDS011;9196;49.194;12.526;2023-04-24T01:47:23;3.43;;;3.13;;
18140;SDS011;9196;49.194;12.526;2023-04-24T01:49:50;3.33;;;3.13;;
18140;SDS011;9196;49.194;12.526;2023-04-24T01:52:17;3.60;;;3.40;;
18140;SDS011;9196;49.194;12.526;2023-04-24T01:54:44;3.40;;;3.10;;
18140;SDS011;9196;49.194;12.526;2023-04-24T01:57:13;3.83;;;3.57;;
18140;SDS011;9196;49.194;12.526;2023-04-24T01:59:40;6.87;;;3.03;;
18140;SDS011;9196;49.194;12.526;2023-04-24T02:02:07;3.93;;;3.07;;
18140;SDS011;9196;49.194;12.526;2023-04-24T02:04:34;4.10;;;3.80;;
18140;SDS011;9196;49.194;12.526;2023-04-24T02:07:00;3.33;;;3.03;;
18140;SDS011;9196;49.194;12.526;2023-04-24T02:09:27;3.60;;;3.20;;
18140;SDS011;9196;49.194;12.526;2023-04-24T02:11:54;4.60;;;4.10;;
18140;SDS011;9196;49.194;12.526;2023-04-24T02:14:22;4.20;;;3.90;;
18140;SDS011;9196;49.194;12.526;2023-04-24T02:16:49;4.33;;;3.93;;
18140;SDS011;9196;49.194;12.526;2023-04-24T02:19:16;4.63;;;4.20;;
18140;SDS011;9196;49.194;12.526;2023-04-24T02:21:43;4.60;;;4.30;;
18140;SDS011;9196;49.194;12.526;2023-04-24T02:24:09;4.07;;;3.77;;
18140;SDS011;9196;49.194;12.526;2023-04-24T02:26:36;4.60;;;4.30;;
18140;SDS011;9196;49.194;12.526;2023-04-24T02:29:03;4.70;;;4.37;;
18140;SDS011;9196;49.194;12.526;2023-04-24T02:31:31;5.20;;;4.80;;
18140;SDS011;9196;49.194;12.526;2023-04-24T02:33:58;3.77;;;3.53;;
18140;SDS011;9196;49.194;12.526;2023-04-24T02:36:25;4.83;;;3.93;;
18140;SDS011;9196;49.194;12.526;2023-04-24T02:38:52;3.87;;;3.57;;
18140;SDS011;9196;49.194;12.526;2023-04-24T02:41:19;4.10;;;3.90;;
18140;SDS011;9196;49.194;12.526;2023-04-24T02:43:46;5.20;;;4.83;;
18140;SDS011;9196;49.194;12.526;2023-04-24T02:46:13;4.10;;;3.80;;
18140;SDS011;9196;49.194;12.526;2023-04-24T02:48:41;4.30;;;3.90;;
18140;SDS011;9196;49.194;12.526;2023-04-24T02:51:07;4.60;;;4.20;;
18140;SDS011;9196;49.194;12.526;2023-04-24T02:53:34;4.10;;;3.80;;
18140;SDS011;9196;49.194;12.526;2023-04-24T02:56:01;4.10;;;3.73;;
18140;SDS011;9196;49.194;12.526;2023-04-24T02:58:28;4.67;;;4.27;;
18140;SDS011;9196;49.194;12.526;2023-04-24T03:00:55;4.27;;;3.97;;
18140;SDS011;9196;49.194;12.526;2023-04-24T03:03:22;14.30;;;4.83;;
18140;SDS011;9196;49.194;12.526;2023-04-24T03:05:50;27.07;;;5.13;;
18140;SDS011;9196;49.194;12.526;2023-04-24T03:08:17;5.00;;;4.43;;
18140;SDS011;9196;49.194;12.526;2023-04-24T03:10:44;3.80;;;3.60;;
18140;SDS011;9196;49.194;12.526;2023-04-24T03:13:11;4.30;;;4.10;;
18140;SDS011;9196;49.194;12.526;2023-04-24T03:15:38;4.10;;;3.90;;
18140;SDS011;9196;49.194;12.526;2023-04-24T03:18:05;4.43;;;3.93;;
18140;SDS011;9196;49.194;12.526;2023-04-24T03:20:31;4.23;;;4.00;;
18140;SDS011;9196;49.194;12.526;2023-04-24T03:22:59;4.20;;;3.93;;
18140;SDS011;9196;49.194;12.526;2023-04-24T03:25:26;3.20;;;3.00;;
18140;SDS011;9196;49.194;12.526;2023-04-24T03:27:53;6.37;;;5.80;;
18140;SDS011;9196;49.194;12.526;2023-04-24T03:30:20;5.77;;;5.27;;
18140;SDS011;9196;49.194;12.526;2023-04-24T03:32:47;7.10;;;5.30;;
18140;SDS011;9196;49.194;12.526;2023-04-24T03:35:13;8.60;;;5.70;;
18140;SDS011;9196;49.194;12.526;2023-04-24T03:37:40;5.23;;;4.83;;
18140;SDS011;9196;49.194;12.526;2023-04-24T03:40:09;5.13;;;4.67;;
18140;SDS011;9196;49.194;12.526;2023-04-24T03:42:36;5.57;;;5.00;;
18140;SDS011;9196;49.194;12.526;2023-04-24T03:45:03;9.03;;;5.17;;
18140;SDS011;9196;49.194;12.526;2023-04-24T03:47:30;4.40;;;4.10;;
18140;SDS011;9196;49.194;12.526;2023-04-24T03:49:57;5.30;;;4.90;;
18140;SDS011;9196;49.194;12.526;2023-04-24T03:52:24;5.30;;;5.00;;
18140;SDS011;9196;49.194;12.526;2023-04-24T03:54:51;4.57;;;4.33;;
18140;SDS011;9196;49.194;12.526;2023-04-24T03:57:19;5.40;;;5.00;;
18140;SDS011;9196;49.194;12.526;2023-04-24T03:59:45;6.13;;;5.57;;
18140;SDS011;9196;49.194;12.526;2023-04-24T04:02:12;5.90;;;5.40;;
18140;SDS011;9196;49.194;12.526;2023-04-24T04:04:39;4.77;;;4.37;;
18140;SDS011;9196;49.194;12.526;2023-04-24T04:07:06;5.33;;;4.83;;
18140;SDS011;9196;49.194;12.526;2023-04-24T04:09:33;7.97;;;5.67;;
18140;SDS011;9196;49.194;12.526;2023-04-24T04:12:00;6.93;;;6.33;;
18140;SDS011;9196;49.194;12.526;2023-04-24T04:14:28;6.70;;;6.20;;
18140;SDS011;9196;49.194;12.526;2023-04-24T04:16:55;6.57;;;5.97;;
18140;SDS011;9196;49.194;12.526;2023-04-24T04:19:22;6.30;;;5.80;;
18140;SDS011;9196;49.194;12.526;2023-04-24T04:21:48;8.03;;;7.33;;
18140;SDS011;9196;49.194;12.526;2023-04-24T04:24:18;8.27;;;7.40;;
18140;SDS011;9196;49.194;12.526;2023-04-24T04:26:45;8.40;;;7.60;;
18140;SDS011;9196;49.194;12.526;2023-04-24T04:29:12;18.73;;;10.70;;
18140;SDS011;9196;49.194;12.526;2023-04-24T04:31:41;8.53;;;7.63;;
18140;SDS011;9196;49.194;12.526;2023-04-24T04:34:08;7.40;;;6.80;;
18140;SDS011;9196;49.194;12.526;2023-04-24T04:36:35;8.27;;;7.37;;
18140;SDS011;9196;49.194;12.526;2023-04-24T04:39:05;6.50;;;5.97;;
18140;SDS011;9196;49.194;12.526;2023-04-24T04:41:31;6.23;;;5.83;;
18140;SDS011;9196;49.194;12.526;2023-04-24T04:44:00;7.40;;;5.90;;
18140;SDS011;9196;49.194;12.526;2023-04-24T04:46:29;8.30;;;6.73;;
18140;SDS011;9196;49.194;12.526;2023-04-24T04:48:58;14.13;;;11.70;;
18140;SDS011;9196;49.194;12.526;2023-04-24T04:51:26;8.03;;;6.50;;
18140;SDS011;9196;49.194;12.526;2023-04-24T04:53:53;8.17;;;7.30;;
18140;SDS011;9196;49.194;12.526;2023-04-24T04:56:19;22.63;;;6.50;;
18140;SDS011;9196;49.194;12.526;2023-04-24T04:58:47;11.30;;;8.27;;
18140;SDS011;9196;49.194;12.526;2023-04-24T05:01:14;8.23;;;7.50;;
18140;SDS011;9196;49.194;12.526;2023-04-24T05:03:41;13.53;;;7.33;;
18140;SDS011;9196;49.194;12.526;2023-04-24T05:06:09;7.57;;;6.27;;
18140;SDS011;9196;49.194;12.526;2023-04-24T05:08:36;6.77;;;6.17;;
18140;SDS011;9196;49.194;12.526;2023-04-24T05:11:02;8.07;;;6.27;;
18140;SDS011;9196;49.194;12.526;2023-04-24T05:13:29;7.20;;;4.97;;
18140;SDS011;9196;49.194;12.526;2023-04-24T05:15:57;5.83;;;5.17;;
18140;SDS011;9196;49.194;12.526;2023-04-24T05:18:24;6.70;;;6.10;;
18140;SDS011;9196;49.194;12.526;2023-04-24T05:20:50;6.27;;;5.80;;
18140;SDS011;9196;49.194;12.526;2023-04-24T05:30:03;6.37;;;5.50;;
18140;SDS011;9196;49.194;12.526;2023-04-24T05:32:31;6.57;;;6.05;;
18140;SDS011;9196;49.194;12.526;2023-04-24T05:34:58;5.90;;;5.40;;
18140;SDS011;9196;49.194;12.526;2023-04-24T05:37:24;6.25;;;5.53;;
18140;SDS011;9196;49.194;12.526;2023-04-24T05:39:52;6.17;;;5.57;;
18140;SDS011;9196;49.194;12.526;2023-04-24T05:42:18;6.03;;;5.43;;
18140;SDS011;9196;49.194;12.526;2023-04-24T05:44:45;5.65;;;5.15;;
18140;SDS011;9196;49.194;12.526;2023-04-24T05:47:13;6.10;;;5.50;;
18140;SDS011;9196;49.194;12.526;2023-04-24T05:49:40;5.37;;;4.60;;
18140;SDS011;9196;49.194;12.526;2023-04-24T05:52:07;5.57;;;5.17;;
18140;SDS011;9196;49.194;12.526;2023-04-24T05:54:33;5.77;;;5.23;;
18140;SDS011;9196;49.194;12.526;2023-04-24T05:57:00;6.55;;;5.47;;
18140;SDS011;9196;49.194;12.526;2023-04-24T05:59:32;5.67;;;5.27;;
18140;SDS011;9196;49.194;12.526;2023-04-24T06:01:59;10.30;;;5.50;;
18140;SDS011;9196;49.194;12.526;2023-04-24T06:04:27;6.97;;;5.60;;
18140;SDS011;9196;49.194;12.526;2023-04-24T06:06:54;5.83;;;5.30;;
18140;SDS011;9196;49.194;12.526;2023-04-24T06:09:21;5.40;;;4.83;;
18140;SDS011;9196;49.194;12.526;2023-04-24T06:11:48;5.07;;;4.63;;
18140;SDS011;9196;49.194;12.526;2023-04-24T06:14:17;5.28;;;4.72;;
18140;SDS011;9196;49.194;12.526;2023-04-24T06:16:45;5.23;;;4.70;;
18140;SDS011;9196;49.194;12.526;2023-04-24T06:19:12;5.60;;;5.00;;
18140;SDS011;9196;49.194;12.526;2023-04-24T06:21:40;6.60;;;4.57;;
18140;SDS011;9196;49.194;12.526;2023-04-24T06:24:07;5.63;;;4.30;;
18140;SDS011;9196;49.194;12.526;2023-04-24T06:26:37;8.10;;;4.50;;
18140;SDS011;9196;49.194;12.526;2023-04-24T06:29:03;4.20;;;3.90;;
18140;SDS011;9196;49.194;12.526;2023-04-24T06:31:30;4.90;;;4.50;;
18140;SDS011;9196;49.194;12.526;2023-04-24T06:34:01;4.90;;;4.60;;
18140;SDS011;9196;49.194;12.526;2023-04-24T06:36:28;4.10;;;3.90;;
18140;SDS011;9196;49.194;12.526;2023-04-24T06:41:25;3.53;;;3.40;;
18140;SDS011;9196;49.194;12.526;2023-04-24T06:43:52;3.55;;;3.33;;
18140;SDS011;9196;49.194;12.526;2023-04-24T06:46:18;4.55;;;3.60;;
18140;SDS011;9196;49.194;12.526;2023-04-24T06:48:47;4.77;;;3.97;;
18140;SDS011;9196;49.194;12.526;2023-04-24T06:51:13;4.13;;;3.83;;
18140;SDS011;9196;49.194;12.526;2023-04-24T06:53:40;4.93;;;4.13;;
18140;SDS011;9196;49.194;12.526;2023-04-24T06:56:07;4.00;;;3.40;;
18140;SDS011;9196;49.194;12.526;2023-04-24T06:58:35;3.63;;;3.43;;
18140;SDS011;9196;49.194;12.526;2023-04-24T07:01:02;3.97;;;3.60;;
18140;SDS011;9196;49.194;12.526;2023-04-24T07:03:28;4.67;;;3.60;;
18140;SDS011;9196;49.194;12.526;2023-04-24T07:05:55;3.30;;;3.10;;
18140;SDS011;9196;49.194;12.526;2023-04-24T07:08:22;3.35;;;3.15;;
18140;SDS011;9196;49.194;12.526;2023-04-24T07:10:50;3.77;;;3.47;;
18140;SDS011;9196;49.194;12.526;2023-04-24T07:13:17;4.20;;;3.40;;
18140;SDS011;9196;49.194;12.526;2023-04-24T07:15:45;4.23;;;3.37;;
18140;SDS011;9196;49.194;12.526;2023-04-24T07:18:14;2.70;;;2.60;;
18140;SDS011;9196;49.194;12.526;2023-04-24T07:20:40;6.60;;;2.87;;
18140;SDS011;9196;49.194;12.526;2023-04-24T07:23:07;3.40;;;3.10;;
18140;SDS011;9196;49.194;12.526;2023-04-24T07:25:34;4.37;;;3.50;;
18140;SDS011;9196;49.194;12.526;2023-04-24T07:28:01;3.77;;;3.03;;
18140;SDS011;9196;49.194;12.526;2023-04-24T07:30:28;3.65;;;3.35;;
18140;SDS011;9196;49.194;12.526;2023-04-24T07:32:56;2.90;;;2.70;;
18140;SDS011;9196;49.194;12.526;2023-04-24T07:35:23;3.13;;;2.93;;
18140;SDS011;9196;49.194;12.526;2023-04-24T07:37:50;13.37;;;2.90;;
18140;SDS011;9196;49.194;12.526;2023-04-24T07:40:17;4.10;;;3.00;;
18140;SDS011;9196;49.194;12.526;2023-04-24T07:42:44;2.90;;;2.80;;
18140;SDS011;9196;49.194;12.526;2023-04-24T07:45:13;3.00;;;2.90;;
18140;SDS011;9196;49.194;12.526;2023-04-24T07:47:40;3.20;;;2.97;;
18140;SDS011;9196;49.194;12.526;2023-04-24T07:50:10;3.37;;;3.07;;
18140;SDS011;9196;49.194;12.526;2023-04-24T07:52:37;2.60;;;2.50;;
18140;SDS011;9196;49.194;12.526;2023-04-24T07:55:05;2.60;;;2.50;;
18140;SDS011;9196;49.194;12.526;2023-04-24T07:57:32;4.85;;;2.90;;
18140;SDS011;9196;49.194;12.526;2023-04-24T07:59:58;3.03;;;2.80;;
18140;SDS011;9196;49.194;12.526;2023-04-24T08:02:25;2.43;;;2.30;;
18140;SDS011;9196;49.194;12.526;2023-04-24T08:04:52;2.70;;;2.10;;
18140;SDS011;9196;49.194;12.526;2023-04-24T08:07:21;2.57;;;2.47;;
18140;SDS011;9196;49.194;12.526;2023-04-24T08:09:48;3.80;;;2.10;;
18140;SDS011;9196;49.194;12.526;2023-04-24T08:12:14;2.40;;;2.30;;
18140;SDS011;9196;49.194;12.526;2023-04-24T08:14:41;1.70;;;1.60;;
18140;SDS011;9196;49.194;12.526;2023-04-24T08:17:08;1.90;;;1.80;;
18140;SDS011;9196;49.194;12.526;2023-04-24T08:19:35;1.90;;;1.80;;
18140;SDS011;9196;49.194;12.526;2023-04-24T08:22:01;2.30;;;1.77;;
18140;SDS011;9196;49.194;12.526;2023-04-24T08:24:30;2.33;;;1.90;;
18140;SDS011;9196;49.194;12.526;2023-04-24T08:26:57;1.60;;;1.50;;
18140;SDS011;9196;49.194;12.526;2023-04-24T08:29:24;5.23;;;2.10;;
18140;SDS011;9196;49.194;12.526;2023-04-24T08:31:51;1.50;;;1.40;;
18140;SDS011;9196;49.194;12.526;2023-04-24T08:34:19;1.20;;;1.20;;
18140;SDS011;9196;49.194;12.526;2023-04-24T08:36:46;1.57;;;1.40;;
18140;SDS011;9196;49.194;12.526;2023-04-24T08:39:13;2.83;;;1.90;;
18140;SDS011;9196;49.194;12.526;2023-04-24T08:41:41;3.40;;;1.67;;
18140;SDS011;9196;49.194;12.526;2023-04-24T08:44:11;2.33;;;1.50;;
18140;SDS011;9196;49.194;12.526;2023-04-24T08:46:40;5.60;;;1.70;;
18140;SDS011;9196;49.194;12.526;2023-04-24T08:49:08;4.67;;;1.63;;
18140;SDS011;9196;49.194;12.526;2023-04-24T08:51:36;1.20;;;1.20;;
18140;SDS011;9196;49.194;12.526;2023-04-24T08:54:03;1.20;;;1.20;;
18140;SDS011;9196;49.194;12.526;2023-04-24T08:56:32;1.37;;;1.27;;
18140;SDS011;9196;49.194;12.526;2023-04-24T08:59:04;1.33;;;1.33;;
18140;SDS011;9196;49.194;12.526;2023-04-24T09:01:31;2.33;;;1.30;;
18140;SDS011;9196;49.194;12.526;2023-04-24T09:04:00;1.13;;;1.10;;
18140;SDS011;9196;49.194;12.526;2023-04-24T09:06:29;1.00;;;1.00;;
18140;SDS011;9196;49.194;12.526;2023-04-24T09:08:57;2.20;;;1.13;;
18140;SDS011;9196;49.194;12.526;2023-04-24T09:11:25;3.67;;;0.87;;
18140;SDS011;9196;49.194;12.526;2023-04-24T09:13:53;1.00;;;1.00;;
18140;SDS011;9196;49.194;12.526;2023-04-24T09:16:21;1.43;;;1.00;;
18140;SDS011;9196;49.194;12.526;2023-04-24T09:18:49;1.27;;;1.17;;
18140;SDS011;9196;49.194;12.526;2023-04-24T09:21:16;4.77;;;1.10;;
18140;SDS011;9196;49.194;12.526;2023-04-24T09:23:42;1.50;;;1.40;;
18140;SDS011;9196;49.194;12.526;2023-04-24T09:26:09;1.43;;;1.33;;
18140;SDS011;9196;49.194;12.526;2023-04-24T09:28:37;3.60;;;1.80;;
18140;SDS011;9196;49.194;12.526;2023-04-24T09:31:05;1.30;;;1.20;;
18140;SDS011;9196;49.194;12.526;2023-04-24T09:33:35;1.10;;;1.00;;
18140;SDS011;9196;49.194;12.526;2023-04-24T09:36:02;1.17;;;1.15;;
18140;SDS011;9196;49.194;12.526;2023-04-24T09:38:32;1.27;;;1.10;;
18140;SDS011;9196;49.194;12.526;2023-04-24T09:41:01;1.20;;;1.20;;
18140;SDS011;9196;49.194;12.526;2023-04-24T09:43:28;1.10;;;1.10;;
18140;SDS011;9196;49.194;12.526;2023-04-24T09:45:56;1.27;;;1.27;;
18140;SDS011;9196;49.194;12.526;2023-04-24T09:48:30;1.60;;;1.50;;
18140;SDS011;9196;49.194;12.526;2023-04-24T09:51:00;1.53;;;1.40;;
18140;SDS011;9196;49.194;12.526;2023-04-24T09:53:28;1.80;;;1.40;;
18140;SDS011;9196;49.194;12.526;2023-04-24T09:55:55;2.10;;;1.27;;
18140;SDS011;9196;49.194;12.526;2023-04-24T09:58:25;1.85;;;1.75;;
18140;SDS011;9196;49.194;12.526;2023-04-24T10:00:53;1.47;;;1.37;;
18140;SDS011;9196;49.194;12.526;2023-04-24T10:03:23;1.70;;;1.60;;
18140;SDS011;9196;49.194;12.526;2023-04-24T10:05:51;2.87;;;1.50;;
18140;SDS011;9196;49.194;12.526;2023-04-24T10:08:19;2.27;;;1.27;;
18140;SDS011;9196;49.194;12.526;2023-04-24T10:10:47;1.43;;;1.43;;
18140;SDS011;9196;49.194;12.526;2023-04-24T10:13:14;2.10;;;1.60;;
18140;SDS011;9196;49.194;12.526;2023-04-24T10:15:41;1.47;;;1.47;;
18140;SDS011;9196;49.194;12.526;2023-04-24T10:18:08;1.73;;;1.63;;
18140;SDS011;9196;49.194;12.526;2023-04-24T10:20:36;1.83;;;1.73;;
18140;SDS011;9196;49.194;12.526;2023-04-24T10:23:04;9.03;;;2.03;;
18140;SDS011;9196;49.194;12.526;2023-04-24T10:25:33;4.10;;;1.97;;
18140;SDS011;9196;49.194;12.526;2023-04-24T10:28:01;1.40;;;1.30;;
18140;SDS011;9196;49.194;12.526;2023-04-24T10:30:29;2.10;;;1.50;;
18140;SDS011;9196;49.194;12.526;2023-04-24T10:33:00;1.40;;;1.30;;
18140;SDS011;9196;49.194;12.526;2023-04-24T10:35:27;2.73;;;1.70;;
18140;SDS011;9196;49.194;12.526;2023-04-24T10:37:58;1.40;;;1.40;;
18140;SDS011;9196;49.194;12.526;2023-04-24T10:40:30;1.13;;;1.03;;
18140;SDS011;9196;49.194;12.526;2023-04-24T10:42:59;4.83;;;1.60;;
18140;SDS011;9196;49.194;12.526;2023-04-24T10:45:30;1.10;;;1.10;;
18140;SDS011;9196;49.194;12.526;2023-04-24T10:47:57;1.57;;;1.47;;
18140;SDS011;9196;49.194;12.526;2023-04-24T10:50:26;1.47;;;1.47;;
18140;SDS011;9196;49.194;12.526;2023-04-24T10:52:54;2.00;;;1.30;;
18140;SDS011;9196;49.194;12.526;2023-04-24T10:55:41;1.93;;;1.70;;
18140;SDS011;9196;49.194;12.526;2023-04-24T10:58:11;2.43;;;1.50;;
18140;SDS011;9196;49.194;12.526;2023-04-24T11:00:38;1.63;;;1.50;;
18140;SDS011;9196;49.194;12.526;2023-04-24T11:03:06;1.50;;;1.40;;
18140;SDS011;9196;49.194;12.526;2023-04-24T11:05:49;1.97;;;1.47;;
18140;SDS011;9196;49.194;12.526;2023-04-24T11:08:21;1.37;;;1.30;;
18140;SDS011;9196;49.194;12.526;2023-04-24T11:11:00;1.50;;;1.40;;
18140;SDS011;9196;49.194;12.526;2023-04-24T11:16:32;1.47;;;1.37;;
18140;SDS011;9196;49.194;12.526;2023-04-24T11:19:00;2.53;;;2.33;;
18140;SDS011;9196;49.194;12.526;2023-04-24T11:21:30;2.10;;;1.20;;
18140;SDS011;9196;49.194;12.526;2023-04-24T11:23:58;1.50;;;1.40;;
18140;SDS011;9196;49.194;12.526;2023-04-24T11:26:25;1.10;;;1.10;;
18140;SDS011;9196;49.194;12.526;2023-04-24T11:29:05;1.20;;;1.00;;
18140;SDS011;9196;49.194;12.526;2023-04-24T11:31:34;1.40;;;1.30;;
18140;SDS011;9196;49.194;12.526;2023-04-24T11:34:08;5.30;;;1.30;;
18140;SDS011;9196;49.194;12.526;2023-04-24T11:36:36;1.73;;;1.37;;
18140;SDS011;9196;49.194;12.526;2023-04-24T11:39:03;0.97;;;0.97;;
18140;SDS011;9196;49.194;12.526;2023-04-24T11:41:30;2.07;;;1.43;;
18140;SDS011;9196;49.194;12.526;2023-04-24T11:43:56;7.93;;;1.27;;
18140;SDS011;9196;49.194;12.526;2023-04-24T11:46:27;1.47;;;1.10;;
18140;SDS011;9196;49.194;12.526;2023-04-24T11:48:56;1.37;;;1.37;;
18140;SDS011;9196;49.194;12.526;2023-04-24T11:51:24;2.43;;;1.50;;
18140;SDS011;9196;49.194;12.526;2023-04-24T11:53:52;1.30;;;1.30;;
18140;SDS011;9196;49.194;12.526;2023-04-24T11:56:20;1.10;;;1.10;;
18140;SDS011;9196;49.194;12.526;2023-04-24T11:58:47;1.77;;;1.67;;
18140;SDS011;9196;49.194;12.526;2023-04-24T12:01:14;1.30;;;1.30;;
18140;SDS011;9196;49.194;12.526;2023-04-24T12:03:42;2.00;;;1.20;;
18140;SDS011;9196;49.194;12.526;2023-04-24T12:06:14;1.60;;;1.50;;
18140;SDS011;9196;49.194;12.526;2023-04-24T12:08:40;1.43;;;1.30;;
18140;SDS011;9196;49.194;12.526;2023-04-24T12:11:07;1.40;;;1.30;;
18140;SDS011;9196;49.194;12.526;2023-04-24T12:13:34;2.20;;;1.27;;
18140;SDS011;9196;49.194;12.526;2023-04-24T12:16:01;0.90;;;0.90;;
18140;SDS011;9196;49.194;12.526;2023-04-24T12:18:30;1.70;;;1.60;;
18140;SDS011;9196;49.194;12.526;2023-04-24T12:23:42;1.70;;;1.70;;
18140;SDS011;9196;49.194;12.526;2023-04-24T12:26:10;1.40;;;1.40;;
18140;SDS011;9196;49.194;12.526;2023-04-24T12:28:37;1.57;;;1.30;;
18140;SDS011;9196;49.194;12.526;2023-04-24T12:31:05;2.83;;;1.30;;
18140;SDS011;9196;49.194;12.526;2023-04-24T12:33:33;1.30;;;1.30;;
18140;SDS011;9196;49.194;12.526;2023-04-24T12:36:01;4.93;;;1.70;;
18140;SDS011;9196;49.194;12.526;2023-04-24T12:38:29;1.37;;;1.37;;
18140;SDS011;9196;49.194;12.526;2023-04-24T12:41:03;1.40;;;1.33;;
18140;SDS011;9196;49.194;12.526;2023-04-24T12:43:31;21.57;;;1.80;;
18140;SDS011;9196;49.194;12.526;2023-04-24T12:45:58;1.33;;;1.33;;
18140;SDS011;9196;49.194;12.526;2023-04-24T12:48:25;1.83;;;1.73;;
18140;SDS011;9196;49.194;12.526;2023-04-24T12:50:51;1.47;;;1.47;;
18140;SDS011;9196;49.194;12.526;2023-04-24T12:53:19;1.67;;;1.57;;
18140;SDS011;9196;49.194;12.526;2023-04-24T12:55:47;1.63;;;1.40;;
18140;SDS011;9196;49.194;12.526;2023-04-24T12:58:18;2.33;;;1.30;;
18140;SDS011;9196;49.194;12.526;2023-04-24T13:00:45;1.67;;;1.30;;
18140;SDS011;9196;49.194;12.526;2023-04-24T13:03:12;1.10;;;1.10;;
18140;SDS011;9196;49.194;12.526;2023-04-24T13:05:39;1.43;;;1.20;;
18140;SDS011;9196;49.194;12.526;2023-04-24T13:08:06;1.17;;;1.13;;
18140;SDS011;9196;49.194;12.526;2023-04-24T13:10:33;1.50;;;1.40;;
18140;SDS011;9196;49.194;12.526;2023-04-24T13:13:02;1.60;;;1.50;;
18140;SDS011;9196;49.194;12.526;2023-04-24T13:15:29;1.37;;;1.37;;
18140;SDS011;9196;49.194;12.526;2023-04-24T13:17:56;3.43;;;1.57;;
18140;SDS011;9196;49.194;12.526;2023-04-24T13:20:23;1.30;;;1.23;;
18140;SDS011;9196;49.194;12.526;2023-04-24T13:22:50;1.80;;;1.70;;
18140;SDS011;9196;49.194;12.526;2023-04-24T13:25:17;2.00;;;1.70;;
18140;SDS011;9196;49.194;12.526;2023-04-24T13:27:45;1.33;;;1.23;;
18140;SDS011;9196;49.194;12.526;2023-04-24T13:30:13;1.57;;;1.47;;
18140;SDS011;9196;49.194;12.526;2023-04-24T13:32:40;1.00;;;1.00;;
18140;SDS011;9196;49.194;12.526;2023-04-24T13:35:07;1.20;;;1.20;;
18140;SDS011;9196;49.194;12.526;2023-04-24T13:37:34;1.20;;;1.20;;
18140;SDS011;9196;49.194;12.526;2023-04-24T13:40:01;0.90;;;0.90;;
18140;SDS011;9196;49.194;12.526;2023-04-24T13:42:31;1.00;;;1.00;;
18140;SDS011;9196;49.194;12.526;2023-04-24T13:44:57;1.53;;;1.10;;
18140;SDS011;9196;49.194;12.526;2023-04-24T13:47:26;1.20;;;1.10;;
18140;SDS011;9196;49.194;12.526;2023-04-24T13:49:52;1.57;;;1.47;;
18140;SDS011;9196;49.194;12.526;2023-04-24T13:52:19;1.03;;;1.03;;
18140;SDS011;9196;49.194;12.526;2023-04-24T13:54:46;4.03;;;1.50;;
18140;SDS011;9196;49.194;12.526;2023-04-24T13:57:13;1.07;;;1.07;;
18140;SDS011;9196;49.194;12.526;2023-04-24T13:59:40;1.23;;;0.90;;
18140;SDS011;9196;49.194;12.526;2023-04-24T14:02:07;1.60;;;1.50;;
18140;SDS011;9196;49.194;12.526;2023-04-24T14:04:35;2.20;;;1.10;;
18140;SDS011;9196;49.194;12.526;2023-04-24T14:07:02;1.47;;;1.37;;
18140;SDS011;9196;49.194;12.526;2023-04-24T14:09:29;1.10;;;1.10;;
18140;SDS011;9196;49.194;12.526;2023-04-24T14:11:55;1.30;;;1.30;;
18140;SDS011;9196;49.194;12.526;2023-04-24T14:14:22;3.77;;;1.70;;
18140;SDS011;9196;49.194;12.526;2023-04-24T14:16:49;3.83;;;1.50;;
18140;SDS011;9196;49.194;12.526;2023-04-24T14:19:16;2.77;;;1.40;;
18140;SDS011;9196;49.194;12.526;2023-04-24T14:21:44;1.17;;;1.17;;
18140;SDS011;9196;49.194;12.526;2023-04-24T14:24:11;1.33;;;1.23;;
18140;SDS011;9196;49.194;12.526;2023-04-24T14:26:38;1.37;;;1.37;;
18140;SDS011;9196;49.194;12.526;2023-04-24T14:29:05;1.10;;;1.10;;
18140;SDS011;9196;49.194;12.526;2023-04-24T14:31:32;1.20;;;1.20;;
18140;SDS011;9196;49.194;12.526;2023-04-24T14:33:59;1.20;;;1.20;;
18140;SDS011;9196;49.194;12.526;2023-04-24T14:36:25;2.40;;;1.30;;
18140;SDS011;9196;49.194;12.526;2023-04-24T14:38:53;3.67;;;1.53;;
18140;SDS011;9196;49.194;12.526;2023-04-24T14:41:20;1.20;;;1.10;;
18140;SDS011;9196;49.194;12.526;2023-04-24T14:43:47;1.50;;;1.40;;
18140;SDS011;9196;49.194;12.526;2023-04-24T14:46:13;1.63;;;1.53;;
18140;SDS011;9196;49.194;12.526;2023-04-24T14:48:40;1.60;;;1.50;;
18140;SDS011;9196;49.194;12.526;2023-04-24T14:51:07;1.63;;;1.40;;
18140;SDS011;9196;49.194;12.526;2023-04-24T14:53:34;1.70;;;1.60;;
18140;SDS011;9196;49.194;12.526;2023-04-24T14:56:02;2.00;;;1.90;;
18140;SDS011;9196;49.194;12.526;2023-04-24T14:58:29;1.50;;;1.40;;
18140;SDS011;9196;49.194;12.526;2023-04-24T15:00:55;2.50;;;1.70;;
18140;SDS011;9196;49.194;12.526;2023-04-24T15:03:22;2.00;;;1.90;;
18140;SDS011;9196;49.194;12.526;2023-04-24T15:05:51;1.53;;;1.43;;